Time;durP1;ratioP1;P1;durP2;ratioP2;P2;SDS_P1;SDS_P2;PMS_P1;PMS_P2;Temp;Humidity;BMP_temperature;BMP_pressure;BME280_temperature;BME280_humidity;BME280_pressure;Samples;Min_cycle;Max_cycle;Signal;HPM_P1;HPM_P2
2022/07/06 00:00:09;;;;;;;2.57;0.90;;;14.50;99.90;;;;;;5061067;28;20201;-87
2022/07/06 00:02:36;;;;;;;3.90;0.80;;;14.50;99.90;;;;;;5061282;28;20702;-86
2022/07/06 00:05:05;;;;;;;1.87;0.63;;;14.50;99.90;;;;;;5069325;28;20602;-85
2022/07/06 00:07:32;;;;;;;6.13;0.93;;;14.50;99.90;;;;;;5070350;28;20207;-87
2022/07/06 00:09:59;;;;;;;1.50;0.60;;;14.50;99.90;;;;;;5069270;28;20205;-88
2022/07/06 00:12:25;;;;;;;2.67;0.90;;;14.50;99.90;;;;;;5053988;28;20205;-85
2022/07/06 00:14:52;;;;;;;1.97;0.67;;;14.50;99.90;;;;;;5046044;28;20201;-82
2022/07/06 00:17:19;;;;;;;1.83;0.70;;;14.60;99.90;;;;;;5047274;28;20201;-85
2022/07/06 00:19:46;;;;;;;1.00;0.60;;;14.60;99.90;;;;;;5046536;28;20202;-84
2022/07/06 00:22:15;;;;;;;3.37;0.77;;;14.70;99.90;;;;;;5047168;28;20214;-82
2022/07/06 00:24:41;;;;;;;4.43;1.17;;;14.70;99.90;;;;;;5045841;28;20242;-82
2022/07/06 00:27:08;;;;;;;3.53;1.03;;;14.80;99.90;;;;;;5046559;28;20201;-85
2022/07/06 00:29:35;;;;;;;2.87;0.80;;;14.80;99.90;;;;;;5061301;28;20842;-80
2022/07/06 00:32:02;;;;;;;2.20;0.60;;;14.90;99.90;;;;;;5065180;28;20621;-81
2022/07/06 00:34:29;;;;;;;3.63;0.80;;;14.90;99.90;;;;;;5064790;28;20197;-82
2022/07/06 00:36:56;;;;;;;3.53;0.80;;;15.00;99.90;;;;;;5064766;28;20189;-81
2022/07/06 00:39:28;;;;;;;2.63;0.87;;;15.00;99.90;;;;;;5063952;28;20213;-83
2022/07/06 00:41:56;;;;;;;1.97;0.80;;;15.00;99.90;;;;;;5065507;28;20298;-84
2022/07/06 00:44:23;;;;;;;2.07;0.80;;;15.10;99.90;;;;;;5050972;28;20226;-82
2022/07/06 00:46:49;;;;;;;1.53;0.60;;;15.10;99.90;;;;;;5046009;28;20209;-80
2022/07/06 00:51:58;;;;;;;1.80;0.70;;;15.20;99.90;;;;;;5046815;28;20798;-84
2022/07/06 00:54:28;;;;;;;3.83;0.90;;;15.20;99.90;;;;;;5065780;28;20228;-83
2022/07/06 00:56:55;;;;;;;3.53;0.70;;;15.20;99.90;;;;;;5064355;28;20205;-85
2022/07/06 00:59:24;;;;;;;2.73;1.10;;;15.20;99.90;;;;;;5052399;28;20214;-86
2022/07/06 01:01:51;;;;;;;3.43;0.83;;;15.20;99.90;;;;;;5045522;28;20206;-85
2022/07/06 01:04:18;;;;;;;2.07;0.70;;;15.20;99.90;;;;;;5044780;28;20226;-85
2022/07/06 01:06:46;;;;;;;2.40;0.93;;;15.20;99.90;;;;;;5046939;28;20205;-82
2022/07/06 01:09:13;;;;;;;3.30;0.60;;;15.20;99.90;;;;;;5044404;28;20282;-84
2022/07/06 01:11:41;;;;;;;1.97;0.60;;;15.20;99.90;;;;;;5045745;28;20197;-81
2022/07/06 01:14:09;;;;;;;3.07;0.60;;;15.20;99.90;;;;;;5046567;28;20205;-84
2022/07/06 01:16:36;;;;;;;3.23;0.70;;;15.20;99.90;;;;;;5046419;28;20201;-82
2022/07/06 01:19:03;;;;;;;2.03;0.80;;;15.20;99.90;;;;;;5045831;28;20194;-80
2022/07/06 01:21:31;;;;;;;0.43;0.43;;;15.30;99.90;;;;;;5045501;28;20609;-81
2022/07/06 01:23:58;;;;;;;2.10;0.87;;;15.30;99.90;;;;;;5045253;28;20260;-82
2022/07/06 01:26:25;;;;;;;0.93;0.57;;;15.30;99.90;;;;;;5045009;28;20198;-79
2022/07/06 01:28:53;;;;;;;3.57;0.77;;;15.30;99.90;;;;;;5045067;28;20249;-80
2022/07/06 01:31:21;;;;;;;1.30;0.60;;;15.30;99.90;;;;;;5045614;28;20805;-81
2022/07/06 01:33:50;;;;;;;2.20;0.82;;;15.30;99.90;;;;;;5044263;28;20206;-82
2022/07/06 01:36:17;;;;;;;2.90;0.93;;;15.40;99.90;;;;;;5045638;28;20294;-84
2022/07/06 01:38:50;;;;;;;2.67;0.67;;;15.40;99.90;;;;;;5044206;28;20412;-81
2022/07/06 01:41:17;;;;;;;3.03;1.10;;;15.40;99.90;;;;;;5046921;28;20202;-81
2022/07/06 01:43:44;;;;;;;1.00;0.60;;;15.40;99.90;;;;;;5045928;28;20209;-83
2022/07/06 01:46:12;;;;;;;1.17;0.50;;;15.40;99.90;;;;;;5046243;28;20236;-82
2022/07/06 01:48:39;;;;;;;2.03;0.50;;;15.30;99.90;;;;;;5046022;28;20287;-81
2022/07/06 01:51:06;;;;;;;2.50;0.80;;;15.20;99.90;;;;;;5048769;28;20227;-80
2022/07/06 01:53:33;;;;;;;3.13;0.80;;;15.30;99.90;;;;;;5065331;28;20289;-83
2022/07/06 01:56:01;;;;;;;3.00;0.83;;;15.30;99.90;;;;;;5065522;28;20201;-79
2022/07/06 01:58:28;;;;;;;4.57;1.07;;;15.30;99.90;;;;;;5046120;28;20208;-83
2022/07/06 02:00:55;;;;;;;1.77;0.63;;;15.30;99.90;;;;;;5044864;28;20205;-82
2022/07/06 02:03:21;;;;;;;1.73;0.60;;;15.40;99.90;;;;;;5045882;28;20198;-79
2022/07/06 02:05:48;;;;;;;1.17;0.60;;;15.40;99.90;;;;;;5045740;28;20689;-84
2022/07/06 02:08:15;;;;;;;4.00;1.00;;;15.40;99.90;;;;;;5049298;28;20220;-81
2022/07/06 02:10:42;;;;;;;1.97;0.70;;;15.40;99.90;;;;;;5049960;28;20505;-81
2022/07/06 02:13:10;;;;;;;2.33;0.80;;;15.40;99.90;;;;;;5049751;28;20194;-80
2022/07/06 02:15:37;;;;;;;2.30;0.63;;;15.40;99.90;;;;;;5063757;28;20492;-82
2022/07/06 02:18:04;;;;;;;1.03;0.73;;;15.50;99.90;;;;;;5069834;28;20204;-83
2022/07/06 02:20:31;;;;;;;2.33;0.70;;;15.50;99.90;;;;;;5073719;28;20197;-87
2022/07/06 02:22:57;;;;;;;2.60;0.80;;;15.50;99.90;;;;;;5063850;28;20201;-86
2022/07/06 02:25:25;;;;;;;4.43;0.93;;;15.60;99.90;;;;;;5053904;28;20229;-87
2022/07/06 02:27:52;;;;;;;3.83;0.90;;;15.60;99.90;;;;;;5053423;28;20692;-85
2022/07/06 02:30:20;;;;;;;3.90;0.87;;;15.70;99.90;;;;;;5068349;28;20637;-85
2022/07/06 02:32:48;;;;;;;1.07;0.63;;;15.70;99.90;;;;;;5066611;28;20213;-83
2022/07/06 02:35:14;;;;;;;1.17;0.60;;;15.70;99.90;;;;;;5073935;28;20197;-88
2022/07/06 02:37:41;;;;;;;4.33;0.80;;;15.70;99.90;;;;;;5074354;28;20750;-89
2022/07/06 02:40:09;;;;;;;2.60;0.50;;;15.70;99.90;;;;;;5074494;28;20208;-90
2022/07/06 02:42:36;;;;;;;1.33;0.60;;;15.70;99.90;;;;;;5074504;28;20614;-87
2022/07/06 02:45:03;;;;;;;2.33;0.70;;;15.70;99.90;;;;;;5074362;28;20613;-89
2022/07/06 02:47:32;;;;;;;1.63;0.80;;;15.70;99.90;;;;;;5074744;28;20193;-89
2022/07/06 02:49:59;;;;;;;1.37;0.50;;;15.80;99.90;;;;;;5074259;28;20212;-90
2022/07/06 02:52:25;;;;;;;1.90;0.70;;;15.80;99.90;;;;;;5073711;28;20209;-88
2022/07/06 02:54:53;;;;;;;2.43;0.60;;;15.70;99.90;;;;;;5074567;28;20193;-88
2022/07/06 02:57:20;;;;;;;0.70;0.63;;;15.80;99.90;;;;;;5074339;28;20197;-89
2022/07/06 02:59:49;;;;;;;1.77;0.70;;;15.80;99.90;;;;;;5072207;28;20296;-87
2022/07/06 03:02:16;;;;;;;1.93;0.70;;;15.80;99.90;;;;;;5073911;28;20237;-88
2022/07/06 03:04:44;;;;;;;1.93;0.90;;;15.70;99.90;;;;;;5073808;28;20229;-89
2022/07/06 03:07:14;;;;;;;2.10;0.70;;;15.70;99.90;;;;;;5056371;28;20214;-83
2022/07/06 03:09:41;;;;;;;3.77;0.80;;;15.70;99.90;;;;;;5052113;28;20193;-84
2022/07/06 03:12:08;;;;;;;2.90;0.80;;;15.80;99.90;;;;;;5053477;28;20213;-91
2022/07/06 03:14:35;;;;;;;4.70;0.93;;;15.80;99.90;;;;;;5052427;28;20285;-86
2022/07/06 03:17:02;;;;;;;3.57;1.00;;;15.80;99.90;;;;;;5052278;28;20766;-83
2022/07/06 03:19:29;;;;;;;1.97;0.73;;;15.80;99.90;;;;;;5050437;28;20205;-82
2022/07/06 03:21:57;;;;;;;3.87;0.70;;;15.80;99.90;;;;;;5051776;28;20216;-92
2022/07/06 03:24:24;;;;;;;4.23;0.80;;;15.80;99.90;;;;;;5060196;28;20264;-89
2022/07/06 03:26:51;;;;;;;4.90;1.80;;;15.90;99.90;;;;;;5070232;28;20235;-84
2022/07/06 03:29:18;;;;;;;2.43;0.80;;;15.90;99.90;;;;;;5071592;28;20193;-87
2022/07/06 03:31:44;;;;;;;4.68;0.88;;;15.90;99.90;;;;;;5069595;28;20580;-87
2022/07/06 03:34:11;;;;;;;7.40;1.13;;;15.90;99.90;;;;;;5056074;28;20291;-87
2022/07/06 03:36:38;;;;;;;4.87;1.20;;;15.90;99.90;;;;;;5053295;28;20198;-88
2022/07/06 03:39:07;;;;;;;3.37;1.20;;;15.90;99.90;;;;;;5053554;28;20194;-87
2022/07/06 03:41:34;;;;;;;2.85;0.80;;;15.90;99.90;;;;;;5051680;28;20514;-79
2022/07/06 03:44:01;;;;;;;3.80;1.03;;;15.80;99.90;;;;;;5052083;28;20189;-83
2022/07/06 03:46:28;;;;;;;8.23;1.07;;;15.90;99.90;;;;;;5051296;28;20610;-88
2022/07/06 03:48:56;;;;;;;3.83;0.97;;;15.90;99.90;;;;;;5052042;28;20192;-87
2022/07/06 03:51:22;;;;;;;3.53;0.83;;;15.90;99.90;;;;;;5051729;28;20279;-87
2022/07/06 03:53:49;;;;;;;5.40;1.37;;;15.90;99.90;;;;;;5051841;28;20429;-86
2022/07/06 03:56:29;;;;;;;3.67;1.23;;;15.90;99.90;;;;;;5050337;28;20586;-89
2022/07/06 03:58:57;;;;;;;4.10;1.10;;;15.90;99.90;;;;;;5049136;28;20454;-89
2022/07/06 04:01:24;;;;;;;5.23;1.07;;;15.80;99.90;;;;;;5049825;28;20190;-88
2022/07/06 04:03:51;;;;;;;3.77;1.00;;;15.80;99.90;;;;;;5049668;28;20205;-82
2022/07/06 04:06:18;;;;;;;6.53;1.20;;;15.90;99.90;;;;;;5058958;28;20221;-85
2022/07/06 04:08:44;;;;;;;3.27;1.17;;;15.90;99.90;;;;;;5068439;28;20624;-85
2022/07/06 04:11:12;;;;;;;1.77;0.70;;;15.90;99.90;;;;;;5049042;28;20212;-83
2022/07/06 04:13:40;;;;;;;3.57;0.70;;;15.90;99.90;;;;;;5052000;28;20294;-87
2022/07/06 04:16:07;;;;;;;2.60;1.00;;;16.10;99.90;;;;;;5061918;28;20692;-89
2022/07/06 04:18:34;;;;;;;4.80;1.07;;;16.10;99.90;;;;;;5072435;28;20597;-83
2022/07/06 04:21:02;;;;;;;6.03;1.90;;;16.10;99.90;;;;;;5070813;28;20208;-88
2022/07/06 04:23:29;;;;;;;4.97;1.00;;;16.20;99.90;;;;;;5051652;28;20217;-86
2022/07/06 04:25:56;;;;;;;3.30;1.10;;;16.20;99.90;;;;;;5051258;28;20303;-86
2022/07/06 04:28:23;;;;;;;3.33;1.00;;;16.30;99.90;;;;;;5052053;28;20268;-89
2022/07/06 04:30:51;;;;;;;3.60;0.95;;;16.40;99.90;;;;;;5049492;28;20221;-88
2022/07/06 04:33:18;;;;;;;3.73;0.80;;;16.50;99.90;;;;;;5050093;28;20602;-85
2022/07/06 04:35:45;;;;;;;1.60;0.68;;;16.60;99.90;;;;;;5050528;28;20202;-87
2022/07/06 04:38:11;;;;;;;1.67;0.73;;;16.60;99.90;;;;;;5051013;28;20645;-87
2022/07/06 04:40:38;;;;;;;4.60;0.90;;;16.70;99.90;;;;;;5061926;28;20197;-85
2022/07/06 04:43:05;;;;;;;1.88;0.80;;;16.70;99.90;;;;;;5069322;28;20197;-86
2022/07/06 04:45:32;;;;;;;5.03;0.70;;;16.70;99.90;;;;;;5069986;28;20625;-88
2022/07/06 04:48:01;;;;;;;5.90;1.50;;;16.70;99.90;;;;;;5071007;28;20197;-86
2022/07/06 04:50:28;;;;;;;2.40;1.00;;;16.70;99.90;;;;;;5071101;28;20205;-86
2022/07/06 04:52:54;;;;;;;1.95;0.77;;;16.60;99.90;;;;;;5071207;28;20527;-85
2022/07/06 04:55:21;;;;;;;3.07;0.90;;;16.60;99.90;;;;;;5070492;28;20216;-88
2022/07/06 04:57:48;;;;;;;3.13;0.93;;;16.70;99.90;;;;;;5070606;28;20205;-84
2022/07/06 05:00:16;;;;;;;4.53;1.00;;;16.70;99.90;;;;;;5068567;28;20205;-85
2022/07/06 05:02:43;;;;;;;2.90;1.00;;;16.70;99.90;;;;;;5069053;28;20193;-83
2022/07/06 05:05:11;;;;;;;2.78;0.88;;;16.70;99.90;;;;;;5068977;28;20205;-82
2022/07/06 05:07:39;;;;;;;1.75;0.63;;;16.70;99.90;;;;;;5061490;28;20265;-85
2022/07/06 05:10:08;;;;;;;2.17;0.70;;;16.70;99.90;;;;;;5050032;28;20206;-82
2022/07/06 05:12:35;;;;;;;3.25;0.82;;;16.80;99.90;;;;;;5050828;28;20202;-85
2022/07/06 05:15:02;;;;;;;1.23;0.50;;;16.80;99.90;;;;;;5050049;28;20202;-86
2022/07/06 05:17:29;;;;;;;5.47;1.00;;;16.90;99.90;;;;;;5048034;28;20201;-84
2022/07/06 05:19:56;;;;;;;3.35;0.98;;;16.90;99.90;;;;;;5051637;28;20202;-84
2022/07/06 05:22:24;;;;;;;2.55;0.60;;;17.00;99.90;;;;;;5068577;28;20205;-82
2022/07/06 05:24:51;;;;;;;1.67;0.60;;;17.00;99.90;;;;;;5066034;28;20233;-85
2022/07/06 05:27:18;;;;;;;2.25;0.60;;;17.00;99.90;;;;;;5059252;28;20236;-83
2022/07/06 05:29:45;;;;;;;0.75;0.50;;;17.10;99.90;;;;;;5055486;28;20278;-85
2022/07/06 05:32:12;;;;;;;1.70;0.70;;;17.10;99.90;;;;;;5067413;28;20247;-83
2022/07/06 05:34:39;;;;;;;2.90;0.80;;;17.10;99.90;;;;;;5056226;28;20214;-84
2022/07/06 05:37:06;;;;;;;0.57;0.47;;;17.10;99.90;;;;;;5047361;28;20255;-82
2022/07/06 05:39:35;;;;;;;2.80;0.60;;;17.30;99.90;;;;;;5047739;28;20209;-83
2022/07/06 05:42:02;;;;;;;1.55;0.77;;;17.50;99.90;;;;;;5044969;28;20230;-84
2022/07/06 05:44:28;;;;;;;0.90;0.45;;;17.70;99.90;;;;;;5050461;28;20493;-84
2022/07/06 05:50:11;;;;;;;1.25;0.50;;;18.00;99.90;;;;;;5051076;28;20253;-88
2022/07/06 05:52:27;;;;;;;1.42;0.70;;;18.50;99.90;;;;;;5051077;28;20185;-86
2022/07/06 05:54:55;;;;;;;3.22;0.60;;;18.80;99.90;;;;;;5063650;28;20215;-83
2022/07/06 05:57:22;;;;;;;2.20;0.57;;;19.00;99.90;;;;;;5069050;28;20189;-83
2022/07/06 05:59:49;;;;;;;1.58;0.70;;;19.30;99.90;;;;;;5061526;28;20216;-84
2022/07/06 06:02:16;;;;;;;2.22;0.70;;;19.60;99.90;;;;;;5050581;28;20292;-88
2022/07/06 06:04:43;;;;;;;2.42;0.70;;;19.90;99.90;;;;;;5048843;28;20197;-85
2022/07/06 06:07:10;;;;;;;4.65;1.00;;;20.30;99.90;;;;;;5046972;28;20221;-84
2022/07/06 06:09:37;;;;;;;1.63;0.50;;;20.50;99.90;;;;;;5049682;28;20240;-88
2022/07/06 06:12:08;;;;;;;2.75;0.60;;;20.80;99.90;;;;;;5050383;28;20198;-83
2022/07/06 06:14:35;;;;;;;2.90;0.60;;;21.00;99.90;;;;;;5046106;28;20197;-85
2022/07/06 06:17:02;;;;;;;3.00;0.65;;;21.20;99.90;;;;;;5046620;28;20589;-86
2022/07/06 06:19:28;;;;;;;1.55;0.63;;;21.20;99.90;;;;;;5047242;28;20210;-90
2022/07/06 06:21:55;;;;;;;1.25;0.73;;;21.30;99.90;;;;;;5067982;28;20202;-86
2022/07/06 06:24:23;;;;;;;0.55;0.45;;;21.30;99.90;;;;;;5070157;28;20716;-86
2022/07/06 06:26:50;;;;;;;1.35;0.55;;;21.50;99.90;;;;;;5052374;28;20275;-88
2022/07/06 06:29:18;;;;;;;1.80;0.65;;;21.60;99.90;;;;;;5049104;28;20202;-87
2022/07/06 06:31:45;;;;;;;2.70;1.00;;;21.80;99.90;;;;;;5068516;28;20224;-86
2022/07/06 06:34:12;;;;;;;2.50;0.52;;;21.90;99.90;;;;;;5068119;28;20204;-87
2022/07/06 06:36:39;;;;;;;2.83;0.70;;;22.00;99.90;;;;;;5066574;28;20212;-88
2022/07/06 06:39:06;;;;;;;1.17;0.50;;;22.30;99.90;;;;;;5067107;28;20300;-86
2022/07/06 06:41:33;;;;;;;0.73;0.50;;;22.60;99.90;;;;;;5066552;28;20602;-88
2022/07/06 06:44:00;;;;;;;1.02;0.50;;;22.70;99.90;;;;;;5063817;28;20328;-88
2022/07/06 06:46:28;;;;;;;0.90;0.52;;;22.50;99.90;;;;;;5060747;28;20225;-85
2022/07/06 06:48:55;;;;;;;2.60;0.70;;;22.40;99.90;;;;;;5076122;28;20262;-86
2022/07/06 06:51:22;;;;;;;0.75;0.40;;;22.30;99.90;;;;;;5057763;28;20312;-96
2022/07/06 06:53:49;;;;;;;2.15;0.50;;;22.50;99.90;;;;;;5086153;28;20226;-93
2022/07/06 06:56:16;;;;;;;0.95;0.38;;;22.70;99.90;;;;;;5075765;28;20215;-85
2022/07/06 06:58:43;;;;;;;2.60;0.60;;;22.70;99.90;;;;;;5074907;28;20228;-86
2022/07/06 07:01:10;;;;;;;1.55;0.55;;;22.80;99.90;;;;;;5071119;28;20208;-87
2022/07/06 07:03:40;;;;;;;1.73;0.50;;;23.00;99.90;;;;;;5070164;28;20208;-87
2022/07/06 07:06:08;;;;;;;4.03;0.95;;;23.10;99.90;;;;;;5072659;28;20316;-90
2022/07/06 07:08:35;;;;;;;0.77;0.40;;;23.30;99.90;;;;;;5068314;28;20202;-85
2022/07/06 07:11:02;;;;;;;0.60;0.40;;;23.50;99.90;;;;;;5062276;28;20310;-90
2022/07/06 07:13:29;;;;;;;2.00;0.60;;;23.40;99.90;;;;;;5052696;28;20221;-81
2022/07/06 07:15:56;;;;;;;0.77;0.30;;;23.20;99.90;;;;;;5052790;28;20633;-88
2022/07/06 07:18:22;;;;;;;1.02;0.40;;;23.10;99.90;;;;;;5051765;28;20213;-89
2022/07/06 07:20:51;;;;;;;0.68;0.40;;;23.10;99.90;;;;;;5053406;28;20209;-88
2022/07/06 07:23:18;;;;;;;1.67;0.50;;;23.20;99.90;;;;;;5055273;28;20579;-88
2022/07/06 07:25:45;;;;;;;1.52;0.50;;;23.40;99.90;;;;;;5059291;28;20225;-89
2022/07/06 07:28:12;;;;;;;1.33;0.50;;;23.50;99.90;;;;;;5057418;28;20503;-85
2022/07/06 07:30:39;;;;;;;2.13;0.80;;;23.40;99.90;;;;;;5054933;28;20230;-90
2022/07/06 07:33:06;;;;;;;1.08;0.50;;;23.50;99.90;;;;;;5075909;28;20226;-87
2022/07/06 07:35:32;;;;;;;1.95;0.60;;;23.60;99.90;;;;;;5079319;28;20205;-87
2022/07/06 07:38:01;;;;;;;2.63;0.50;;;23.60;99.90;;;;;;5077479;28;20205;-86
2022/07/06 07:40:28;;;;;;;1.08;0.40;;;23.60;99.90;;;;;;5070501;28;20292;-85
2022/07/06 07:42:55;;;;;;;0.70;0.32;;;23.80;99.90;;;;;;5060716;28;20202;-88
2022/07/06 07:45:21;;;;;;;0.60;0.50;;;23.80;99.90;;;;;;5057560;28;20287;-86
2022/07/06 07:47:48;;;;;;;0.82;0.50;;;23.90;99.90;;;;;;5054545;28;20229;-88
2022/07/06 07:50:15;;;;;;;1.63;0.75;;;24.00;99.90;;;;;;5071536;28;20619;-90
2022/07/06 07:52:42;;;;;;;1.90;0.47;;;23.90;99.90;;;;;;5070740;28;20227;-83
2022/07/06 07:55:11;;;;;;;0.85;0.40;;;23.90;99.90;;;;;;5073148;28;20208;-85
2022/07/06 07:57:38;;;;;;;1.00;0.40;;;24.00;99.90;;;;;;5063181;28;20210;-85
2022/07/06 08:00:06;;;;;;;1.02;0.50;;;24.10;99.90;;;;;;5052044;28;20286;-83
2022/07/06 08:02:33;;;;;;;1.35;0.50;;;24.30;99.90;;;;;;5053484;28;20209;-84
2022/07/06 08:05:00;;;;;;;0.82;0.68;;;24.40;99.90;;;;;;5059936;28;20371;-86
2022/07/06 08:07:27;;;;;;;1.25;0.50;;;24.50;99.90;;;;;;5070415;28;20225;-90
2022/07/06 08:09:54;;;;;;;0.98;0.50;;;24.70;99.90;;;;;;5066471;28;20632;-84
2022/07/06 08:12:22;;;;;;;0.40;0.30;;;24.50;99.90;;;;;;5058980;28;20523;-84
2022/07/06 08:14:49;;;;;;;0.88;0.40;;;24.70;99.90;;;;;;5054601;28;20519;-87
2022/07/06 08:17:16;;;;;;;1.17;0.63;;;24.80;99.90;;;;;;5063298;28;20233;-86
2022/07/06 08:19:43;;;;;;;0.82;0.50;;;25.10;99.90;;;;;;5062875;28;20204;-86
2022/07/06 08:22:09;;;;;;;1.25;0.60;;;25.10;99.90;;;;;;5073863;28;20209;-84
2022/07/06 08:24:37;;;;;;;1.00;0.40;;;25.30;99.90;;;;;;5051548;28;20252;-85
2022/07/06 08:27:04;;;;;;;2.03;0.45;;;25.20;99.90;;;;;;5054513;28;20606;-90
2022/07/06 08:29:33;;;;;;;1.13;0.47;;;25.10;99.90;;;;;;5049752;28;20214;-80
2022/07/06 08:32:00;;;;;;;1.63;0.65;;;25.10;99.90;;;;;;5055344;28;20221;-84
2022/07/06 08:34:27;;;;;;;0.98;0.47;;;25.00;99.90;;;;;;5072078;28;20300;-88
2022/07/06 08:36:54;;;;;;;0.98;0.30;;;25.10;99.90;;;;;;5072818;28;20205;-88
2022/07/06 08:39:23;;;;;;;1.23;0.40;;;25.10;99.90;;;;;;5067599;28;20221;-87
2022/07/06 08:41:51;;;;;;;1.05;0.55;;;25.30;99.90;;;;;;5069045;28;20221;-87
2022/07/06 08:44:19;;;;;;;0.95;0.40;;;25.30;99.90;;;;;;5069529;28;20273;-83
2022/07/06 08:46:53;;;;;;;2.00;0.50;;;25.20;99.90;;;;;;5065605;28;20231;-83
2022/07/06 08:49:21;;;;;;;2.08;0.60;;;25.00;99.90;;;;;;5063189;28;20215;-84
2022/07/06 08:51:48;;;;;;;0.60;0.50;;;25.10;99.90;;;;;;5062102;28;20208;-86
2022/07/06 08:54:15;;;;;;;1.05;0.40;;;25.10;99.90;;;;;;5070239;28;20208;-88
2022/07/06 08:56:47;;;;;;;1.30;0.60;;;25.10;99.90;;;;;;5072121;28;20288;-89
2022/07/06 08:59:14;;;;;;;1.13;0.80;;;25.00;99.90;;;;;;5055031;28;20209;-91
2022/07/06 09:01:41;;;;;;;1.73;0.60;;;24.80;99.90;;;;;;5052048;28;20210;-87
2022/07/06 09:04:10;;;;;;;1.35;0.40;;;24.50;99.90;;;;;;5053388;28;20277;-88
2022/07/06 09:06:37;;;;;;;1.75;0.52;;;24.00;99.90;;;;;;5053311;28;20221;-91
2022/07/06 09:09:07;;;;;;;1.00;0.40;;;23.80;99.90;;;;;;5053696;28;20198;-91
2022/07/06 09:11:35;;;;;;;1.00;0.70;;;23.80;99.90;;;;;;5053347;28;20256;-92
2022/07/06 09:14:02;;;;;;;2.35;0.70;;;23.70;99.90;;;;;;5069904;28;20213;-83
2022/07/06 09:16:30;;;;;;;1.92;0.57;;;23.60;99.90;;;;;;5065523;28;20291;-84
2022/07/06 09:18:57;;;;;;;1.67;0.90;;;23.60;99.90;;;;;;5065454;28;20206;-84
2022/07/06 09:21:27;;;;;;;4.22;0.98;;;23.70;99.90;;;;;;5050923;28;20202;-87
2022/07/06 09:23:55;;;;;;;2.63;0.90;;;23.80;99.90;;;;;;5046730;28;20245;-82
2022/07/06 09:26:23;;;;;;;1.40;0.60;;;23.90;99.90;;;;;;5052048;28;20198;-88
2022/07/06 09:28:51;;;;;;;2.80;0.50;;;23.90;99.90;;;;;;5068951;28;20197;-92
2022/07/06 09:31:18;;;;;;;1.65;0.80;;;23.90;99.90;;;;;;5059984;28;20226;-91
2022/07/06 09:33:59;;;;;;;1.67;0.77;;;24.00;99.90;;;;;;5052738;28;20208;-89
2022/07/06 09:36:44;;;;;;;4.43;0.77;;;24.10;99.90;;;;;;5051342;28;20301;-87
2022/07/06 09:39:19;;;;;;;3.80;0.70;;;24.20;99.90;;;;;;5052209;28;20590;-87
2022/07/06 09:41:46;;;;;;;1.45;0.63;;;24.40;99.90;;;;;;5051992;28;20251;-87
2022/07/06 09:44:14;;;;;;;0.93;0.65;;;24.40;99.90;;;;;;5051997;28;20201;-86
2022/07/06 09:46:42;;;;;;;0.90;0.63;;;24.70;99.90;;;;;;5050990;28;20567;-90
2022/07/06 09:49:10;;;;;;;1.00;0.70;;;24.80;99.90;;;;;;5051088;28;20202;-87
2022/07/06 09:51:37;;;;;;;0.77;0.43;;;24.80;99.90;;;;;;5057330;28;20210;-88
2022/07/06 09:54:08;;;;;;;2.33;0.90;;;25.00;99.90;;;;;;5066550;28;20476;-88
2022/07/06 09:56:39;;;;;;;1.67;0.95;;;25.20;99.90;;;;;;5071001;28;20193;-87
2022/07/06 09:59:14;;;;;;;0.50;0.47;;;25.20;99.90;;;;;;5071275;28;20601;-88
2022/07/06 10:01:41;;;;;;;2.50;0.73;;;25.40;99.90;;;;;;5056169;28;20548;-84
2022/07/06 10:04:10;;;;;;;1.48;0.70;;;25.60;99.90;;;;;;5050929;28;20198;-83
2022/07/06 10:06:37;;;;;;;2.50;0.75;;;25.60;99.90;;;;;;5050096;28;20581;-84
2022/07/06 10:09:09;;;;;;;5.32;0.95;;;25.60;99.90;;;;;;5066747;28;20208;-86
2022/07/06 10:11:39;;;;;;;2.22;0.85;;;25.60;99.90;;;;;;5066816;28;20209;-85
2022/07/06 10:14:07;;;;;;;1.15;0.82;;;25.70;99.90;;;;;;5066678;28;20214;-86
2022/07/06 10:16:37;;;;;;;2.13;0.93;;;25.80;99.90;;;;;;5061742;28;20217;-84
2022/07/06 10:19:06;;;;;;;2.40;1.02;;;25.70;99.90;;;;;;5065006;28;20197;-86
2022/07/06 10:21:34;;;;;;;1.48;0.70;;;25.80;99.90;;;;;;5062011;28;20221;-84
2022/07/06 10:24:02;;;;;;;2.00;0.98;;;26.10;99.90;;;;;;5067394;28;20275;-84
2022/07/06 10:26:33;;;;;;;2.08;0.70;;;26.30;99.90;;;;;;5067132;28;20216;-85
2022/07/06 10:29:00;;;;;;;3.03;1.10;;;26.30;99.90;;;;;;5057750;28;20217;-85
2022/07/06 10:31:29;;;;;;;2.45;1.00;;;26.50;99.90;;;;;;5052125;28;20308;-86
2022/07/06 10:33:58;;;;;;;2.95;0.55;;;26.60;99.90;;;;;;5068861;28;20201;-85
2022/07/06 10:36:25;;;;;;;1.05;0.68;;;26.50;99.90;;;;;;5056374;28;20206;-87
2022/07/06 10:38:53;;;;;;;2.28;1.00;;;26.40;99.90;;;;;;5053258;28;20213;-86
2022/07/06 10:41:32;;;;;;;2.67;1.08;;;26.40;99.90;;;;;;5053846;28;20285;-88
2022/07/06 10:44:15;;;;;;;0.68;0.50;;;26.30;99.90;;;;;;5054207;28;20186;-86
2022/07/06 10:46:41;;;;;;;2.88;1.00;;;26.40;99.90;;;;;;5052272;28;20210;-86
2022/07/06 10:49:16;;;;;;;1.38;0.75;;;26.40;99.90;;;;;;5052114;28;20221;-87
2022/07/06 10:51:43;;;;;;;2.08;0.80;;;26.40;99.90;;;;;;5050125;28;20437;-87
2022/07/06 10:54:10;;;;;;;0.65;0.40;;;26.40;99.90;;;;;;5052552;28;20201;-88
2022/07/06 10:56:40;;;;;;;1.55;0.57;;;26.50;99.90;;;;;;5052685;28;20205;-86
2022/07/06 10:59:10;;;;;;;1.60;0.40;;;26.70;99.90;;;;;;5050566;28;20501;-92
2022/07/06 11:01:37;;;;;;;1.30;0.43;;;26.70;99.90;;;;;;5050528;28;20210;-87
2022/07/06 11:04:09;;;;;;;0.82;0.47;;;26.60;99.90;;;;;;5053892;28;20206;-88
2022/07/06 11:06:37;;;;;;;0.40;0.30;;;26.80;99.90;;;;;;5066798;28;20862;-89
2022/07/06 11:09:06;;;;;;;1.77;0.45;;;26.90;99.90;;;;;;5063451;28;20233;-90
2022/07/06 11:11:44;;;;;;;3.75;0.80;;;26.80;99.90;;;;;;5068510;28;20755;-93
2022/07/06 11:14:14;;;;;;;1.50;0.80;;;26.80;99.90;;;;;;5052335;28;20201;-88
2022/07/06 11:17:02;;;;;;;0.50;0.30;;;26.90;99.90;;;;;;5049807;28;20289;-87
2022/07/06 11:19:29;;;;;;;2.67;0.65;;;26.70;99.90;;;;;;5063577;28;20201;-91
2022/07/06 11:21:57;;;;;;;0.88;0.30;;;26.70;99.90;;;;;;5073442;28;20198;-92
2022/07/06 11:24:26;;;;;;;2.08;0.68;;;26.80;99.90;;;;;;5072964;28;20236;-87
2022/07/06 11:26:56;;;;;;;1.23;0.70;;;26.80;99.90;;;;;;5055160;28;20216;-87
2022/07/06 11:29:24;;;;;;;2.35;0.93;;;26.80;99.90;;;;;;5053417;28;20228;-88
2022/07/06 11:31:53;;;;;;;1.25;0.43;;;27.00;99.90;;;;;;5054055;28;20220;-88
2022/07/06 11:34:21;;;;;;;0.30;0.30;;;27.20;99.90;;;;;;5052421;28;20217;-90
2022/07/06 11:36:48;;;;;;;2.90;0.70;;;27.30;99.90;;;;;;5052636;28;20305;-87
2022/07/06 11:39:16;;;;;;;1.38;0.52;;;27.20;99.90;;;;;;5052666;28;20252;-89
2022/07/06 11:41:43;;;;;;;0.65;0.50;;;27.10;99.90;;;;;;5064384;28;20205;-90
2022/07/06 11:44:11;;;;;;;0.73;0.70;;;27.00;99.90;;;;;;5067595;28;20202;-90
2022/07/06 11:46:41;;;;;;;3.85;0.73;;;26.80;99.90;;;;;;5052406;28;20288;-86
2022/07/06 11:49:12;;;;;;;2.17;0.85;;;26.80;99.90;;;;;;5053586;28;20237;-88
2022/07/06 11:51:40;;;;;;;1.50;0.45;;;27.00;99.90;;;;;;5072529;28;20515;-89
2022/07/06 11:54:10;;;;;;;3.00;0.60;;;27.00;99.90;;;;;;5069813;28;20631;-90
2022/07/06 11:56:37;;;;;;;4.25;0.80;;;27.00;99.90;;;;;;5053367;28;20202;-92
2022/07/06 11:59:05;;;;;;;1.13;0.52;;;27.00;99.90;;;;;;5053008;28;20364;-88
2022/07/06 12:01:33;;;;;;;2.17;0.70;;;26.80;99.90;;;;;;5053289;28;20206;-88
2022/07/06 12:04:03;;;;;;;4.88;1.23;;;26.50;99.90;;;;;;5051181;28;20292;-88
2022/07/06 12:06:30;;;;;;;0.88;0.50;;;26.40;99.90;;;;;;5048276;28;20206;-93
2022/07/06 12:08:58;;;;;;;2.05;0.50;;;26.40;99.90;;;;;;5050561;28;20213;-88
2022/07/06 12:11:28;;;;;;;0.65;0.43;;;26.20;99.90;;;;;;5054862;28;20209;-91
2022/07/06 12:13:57;;;;;;;2.72;0.70;;;26.10;99.90;;;;;;5052731;28;20206;-93
2022/07/06 12:16:30;;;;;;;1.75;0.77;;;26.10;99.90;;;;;;5052856;28;20982;-86
2022/07/06 12:18:59;;;;;;;3.95;0.90;;;26.30;99.90;;;;;;5067720;28;20265;-91
2022/07/06 12:21:26;;;;;;;3.55;0.90;;;26.10;99.90;;;;;;5072626;28;20193;-91
2022/07/06 12:23:55;;;;;;;2.05;0.50;;;26.10;99.90;;;;;;5072329;28;20232;-90
2022/07/06 12:26:26;;;;;;;1.25;0.60;;;25.90;99.90;;;;;;5072545;28;20201;-88
2022/07/06 12:29:05;;;;;;;2.17;0.80;;;25.80;99.90;;;;;;5072811;28;20228;-94
2022/07/06 12:31:33;;;;;;;6.25;1.10;;;26.00;99.90;;;;;;5071648;28;20414;-88
2022/07/06 12:34:02;;;;;;;4.03;1.10;;;26.10;99.90;;;;;;5071589;28;20205;-89
2022/07/06 12:36:29;;;;;;;3.22;1.33;;;26.10;99.90;;;;;;5070446;28;20604;-88
2022/07/06 12:38:56;;;;;;;5.88;1.15;;;26.10;99.90;;;;;;5071162;28;20193;-92
2022/07/06 12:41:33;;;;;;;2.05;1.15;;;25.80;99.90;;;;;;5070969;28;20205;-88
2022/07/06 12:44:06;;;;;;;2.22;0.90;;;25.50;99.90;;;;;;5072242;28;20595;-88
2022/07/06 12:46:35;;;;;;;4.32;1.30;;;25.20;99.90;;;;;;5071814;28;20248;-90
2022/07/06 12:49:12;;;;;;;3.20;1.02;;;25.10;99.90;;;;;;5071131;28;20228;-87
2022/07/06 12:52:00;;;;;;;3.10;0.88;;;25.00;99.90;;;;;;5051633;28;20198;-89
2022/07/06 12:54:31;;;;;;;3.53;0.90;;;24.80;99.90;;;;;;5052501;28;20224;-90
2022/07/06 12:57:07;;;;;;;4.18;1.45;;;24.70;99.90;;;;;;5052551;28;20292;-88